Terminal Aerodrome Forecast
Issued by NWS Grand Forks, ND

Home | Current Version | Previous Version | Graphics & Text | Print | Product List | Glossary On
Versions: 1 2 3 4 5 6 7 8 9 10 11 12 13 14
455
FTUS43 KFGF 271136
TAFFAR
TAF
KFAR 271136Z 2712/2812 35010KT P6SM BKN040
     FM280200 32007KT P6SM BKN060
     FM280500 31006KT P6SM SCT070=

USA.gov is the U.S. government's official web portal to all federal, state and local government web resources and services.